Time;durP1;ratioP1;P1;durP2;ratioP2;P2;SDS_P1;SDS_P2;PMS_P1;PMS_P2;Temp;Humidity;BMP_temperature;BMP_pressure;BME280_temperature;BME280_humidity;BME280_pressure;Samples;Min_cycle;Max_cycle;Signal;HPM_P1;HPM_P2
2023/02/06 00:01:47;;;;;;;29.53;22.90;;;4.80;99.90;;;;;;5032533;28;20454;-72
2023/02/06 00:04:13;;;;;;;29.63;21.53;;;4.60;99.90;;;;;;5034237;28;20237;-72
2023/02/06 00:06:39;;;;;;;30.30;22.00;;;4.60;99.90;;;;;;5033705;28;20479;-72
2023/02/06 00:09:06;;;;;;;31.50;23.53;;;4.70;99.90;;;;;;5033754;28;20976;-71
2023/02/06 00:11:32;;;;;;;32.37;24.40;;;4.80;99.90;;;;;;5032902;28;20201;-72
2023/02/06 00:13:58;;;;;;;30.73;22.70;;;4.80;99.90;;;;;;5022447;28;20403;-73
2023/02/06 00:16:26;;;;;;;30.87;23.33;;;4.90;99.90;;;;;;5013940;28;20406;-73
2023/02/06 00:18:52;;;;;;;30.30;23.63;;;4.70;99.90;;;;;;5013661;28;20187;-72
2023/02/06 00:21:20;;;;;;;33.53;25.00;;;4.50;99.90;;;;;;5014136;28;20413;-71
2023/02/06 00:23:47;;;;;;;31.97;24.20;;;4.30;99.90;;;;;;5013789;28;20418;-72
2023/02/06 00:26:13;;;;;;;30.93;23.87;;;4.50;99.90;;;;;;5013583;28;20415;-72
2023/02/06 00:28:38;;;;;;;31.50;23.17;;;4.40;99.90;;;;;;5013446;28;20450;-71
2023/02/06 00:31:05;;;;;;;35.37;24.90;;;4.30;99.90;;;;;;5025738;28;20449;-72
2023/02/06 00:33:31;;;;;;;33.20;24.57;;;4.50;99.90;;;;;;5033482;28;20197;-72
2023/02/06 00:35:56;;;;;;;34.60;24.10;;;4.60;99.90;;;;;;5033312;28;20777;-72
2023/02/06 00:38:22;;;;;;;32.63;24.70;;;4.70;99.90;;;;;;5031979;28;20199;-72
2023/02/06 00:40:47;;;;;;;32.03;23.93;;;4.80;99.90;;;;;;5032807;28;20167;-73
2023/02/06 00:43:13;;;;;;;33.43;25.10;;;4.80;99.90;;;;;;5033067;28;20549;-72
2023/02/06 00:45:39;;;;;;;30.23;24.33;;;4.90;99.90;;;;;;5032941;28;20174;-72
2023/02/06 00:48:04;;;;;;;36.30;26.27;;;4.60;99.90;;;;;;5033084;28;20546;-71
2023/02/06 00:50:30;;;;;;;40.30;28.10;;;4.70;99.90;;;;;;5033280;28;20239;-72
2023/02/06 00:52:55;;;;;;;29.90;23.70;;;4.70;99.90;;;;;;5033520;28;20163;-71
2023/02/06 00:55:21;;;;;;;40.13;27.80;;;4.70;99.90;;;;;;5033157;28;20172;-72
2023/02/06 00:57:47;;;;;;;35.03;24.17;;;4.70;99.90;;;;;;5033303;28;20258;-72
2023/02/06 01:00:13;;;;;;;35.67;26.23;;;4.90;99.90;;;;;;5032100;28;20184;-72
2023/02/06 01:02:39;;;;;;;34.90;26.20;;;5.10;99.90;;;;;;5033050;28;20242;-72
2023/02/06 01:05:05;;;;;;;36.37;26.10;;;5.00;99.90;;;;;;5033265;28;20434;-72
2023/02/06 01:07:30;;;;;;;38.37;25.80;;;4.90;99.90;;;;;;5032908;28;20260;-72
2023/02/06 01:09:56;;;;;;;39.50;28.70;;;4.60;99.90;;;;;;5033155;28;20414;-72
2023/02/06 01:12:21;;;;;;;36.90;26.70;;;4.90;99.90;;;;;;5033522;28;20252;-71
2023/02/06 01:14:47;;;;;;;32.17;23.27;;;5.20;99.90;;;;;;5032935;28;20183;-72
2023/02/06 01:17:12;;;;;;;36.97;26.63;;;5.40;99.90;;;;;;5032588;28;20170;-71
2023/02/06 01:19:39;;;;;;;34.77;25.63;;;5.40;99.90;;;;;;5032616;28;20192;-71
2023/02/06 01:22:05;;;;;;;31.57;24.30;;;4.90;99.90;;;;;;5032997;28;20666;-72
2023/02/06 01:24:31;;;;;;;35.60;25.83;;;4.80;99.90;;;;;;5032658;28;20819;-72
2023/02/06 01:26:56;;;;;;;34.13;25.50;;;4.70;99.90;;;;;;5032813;28;20438;-71
2023/02/06 01:29:22;;;;;;;38.43;25.67;;;4.60;99.90;;;;;;5032718;28;20575;-72
2023/02/06 01:31:47;;;;;;;40.33;28.10;;;4.40;99.90;;;;;;5032317;28;20171;-71
2023/02/06 01:34:13;;;;;;;43.50;30.80;;;4.50;99.90;;;;;;5033098;28;20167;-72
2023/02/06 01:36:39;;;;;;;41.03;28.30;;;4.50;99.90;;;;;;5032814;28;20630;-71
2023/02/06 01:39:05;;;;;;;35.73;24.93;;;4.40;99.90;;;;;;5032411;28;20190;-72
2023/02/06 01:41:31;;;;;;;47.13;30.40;;;4.30;99.90;;;;;;5032384;28;20925;-72
2023/02/06 01:44:14;;;;;;;40.10;28.47;;;4.40;99.90;;;;;;5032692;28;20413;-72
2023/02/06 01:46:42;;;;;;;37.83;27.90;;;4.40;99.90;;;;;;5032344;28;20144;-73
2023/02/06 01:49:14;;;;;;;42.37;29.03;;;4.50;99.90;;;;;;5032421;28;20492;-72
2023/02/06 01:51:40;;;;;;;40.67;28.43;;;4.50;99.90;;;;;;5032580;28;20580;-72
2023/02/06 01:54:07;;;;;;;39.50;28.00;;;4.60;99.90;;;;;;5034641;28;20505;-72
2023/02/06 01:56:40;;;;;;;47.90;29.07;;;4.70;99.90;;;;;;5033410;28;20167;-72
2023/02/06 01:59:06;;;;;;;40.20;28.67;;;4.60;99.90;;;;;;5016164;28;20533;-73
2023/02/06 02:01:32;;;;;;;44.60;29.50;;;4.50;99.90;;;;;;5028134;28;20437;-71
2023/02/06 02:04:07;;;;;;;39.60;25.87;;;4.20;99.90;;;;;;5025171;28;20402;-71
2023/02/06 02:06:33;;;;;;;42.77;30.60;;;4.20;99.90;;;;;;5016319;28;20433;-71
2023/02/06 02:09:00;;;;;;;42.77;29.83;;;4.20;99.90;;;;;;5016184;28;20550;-72
2023/02/06 02:11:36;;;;;;;37.87;26.90;;;4.00;99.90;;;;;;5015913;28;20407;-71
2023/02/06 02:14:05;;;;;;;37.07;25.63;;;4.00;99.90;;;;;;5016438;28;20963;-72
2023/02/06 02:16:50;;;;;;;43.30;30.43;;;4.20;99.90;;;;;;5015616;28;20476;-72
2023/02/06 02:19:53;;;;;;;41.10;29.07;;;4.30;99.90;;;;;;5015726;28;20957;-71
2023/02/06 02:22:36;;;;;;;45.57;29.77;;;4.40;99.90;;;;;;5014359;28;20407;-72
2023/02/06 02:25:26;;;;;;;35.23;26.93;;;4.30;99.90;;;;;;5015789;28;20437;-72
2023/02/06 02:28:23;;;;;;;46.87;31.20;;;4.40;99.90;;;;;;5015794;28;20478;-72
2023/02/06 02:31:07;;;;;;;41.43;29.20;;;4.50;99.90;;;;;;5015803;28;20445;-72
2023/02/06 02:33:58;;;;;;;40.43;29.83;;;4.40;99.90;;;;;;5033449;28;20405;-72
2023/02/06 02:36:34;;;;;;;42.67;27.90;;;4.20;99.90;;;;;;5035489;28;20382;-71
2023/02/06 02:39:11;;;;;;;42.20;29.57;;;4.00;99.90;;;;;;5035632;28;20507;-71
2023/02/06 02:42:23;;;;;;;38.37;26.93;;;4.00;99.90;;;;;;5034174;28;20398;-71
2023/02/06 02:45:00;;;;;;;43.37;27.97;;;3.80;99.90;;;;;;5016759;28;20462;-72
2023/02/06 02:47:32;;;;;;;51.47;30.43;;;3.80;99.90;;;;;;5034623;28;20434;-71
2023/02/06 02:50:01;;;;;;;38.17;26.20;;;4.00;99.90;;;;;;5035162;28;20457;-72
2023/02/06 02:52:27;;;;;;;46.27;30.70;;;4.30;99.90;;;;;;5035103;28;20493;-72
2023/02/06 02:54:53;;;;;;;43.03;27.77;;;4.20;99.90;;;;;;5034730;28;20488;-72
2023/02/06 02:57:25;;;;;;;41.50;28.90;;;4.30;99.90;;;;;;5034720;28;20406;-72
2023/02/06 02:59:52;;;;;;;44.03;29.13;;;4.50;99.90;;;;;;5033504;28;20669;-71
2023/02/06 03:02:24;;;;;;;45.30;30.30;;;4.60;99.90;;;;;;5033725;28;20426;-72
2023/02/06 03:04:51;;;;;;;42.80;29.10;;;4.30;99.90;;;;;;5034241;28;20390;-71
2023/02/06 03:07:32;;;;;;;37.37;27.70;;;4.40;99.90;;;;;;5034751;28;20442;-71
2023/02/06 03:10:28;;;;;;;37.53;27.60;;;4.40;99.90;;;;;;5034853;28;20748;-71
2023/02/06 03:13:16;;;;;;;39.70;27.30;;;4.50;99.90;;;;;;5034437;28;20390;-72
2023/02/06 03:15:56;;;;;;;40.60;28.70;;;4.40;99.90;;;;;;5034624;28;20383;-71
2023/02/06 03:18:45;;;;;;;40.03;27.10;;;4.30;99.90;;;;;;5034125;28;20414;-71
2023/02/06 03:21:15;;;;;;;35.03;25.70;;;4.50;99.90;;;;;;5027068;28;20511;-71
2023/02/06 03:23:43;;;;;;;49.20;33.30;;;4.60;99.90;;;;;;5034397;28;20398;-73
2023/02/06 03:26:16;;;;;;;44.03;31.40;;;4.50;99.90;;;;;;5034212;28;20438;-71
2023/02/06 03:28:45;;;;;;;41.93;29.77;;;4.50;99.90;;;;;;5028804;28;20463;-71
2023/02/06 03:31:17;;;;;;;39.93;29.63;;;4.30;99.90;;;;;;5014380;28;20510;-72
2023/02/06 03:33:48;;;;;;;43.13;29.20;;;4.50;99.90;;;;;;5030607;28;20406;-71
2023/02/06 03:36:17;;;;;;;48.20;26.60;;;4.60;99.90;;;;;;5034281;28;20379;-72
2023/02/06 03:38:48;;;;;;;42.67;30.40;;;4.60;99.90;;;;;;5032638;28;20438;-72
2023/02/06 03:41:16;;;;;;;45.87;29.60;;;4.40;99.90;;;;;;5034200;28;20391;-72
2023/02/06 03:43:45;;;;;;;43.57;29.90;;;4.40;99.90;;;;;;5033818;28;20398;-71
2023/02/06 03:46:13;;;;;;;45.47;31.43;;;4.30;99.90;;;;;;5033799;28;20931;-71
2023/02/06 03:48:43;;;;;;;48.47;29.70;;;4.40;99.90;;;;;;5033730;28;20996;-72
2023/02/06 03:51:16;;;;;;;40.67;28.97;;;4.50;99.90;;;;;;5034041;28;20909;-71
2023/02/06 03:53:46;;;;;;;46.10;31.73;;;4.60;99.90;;;;;;5033882;28;20398;-72
2023/02/06 03:56:20;;;;;;;37.57;28.00;;;4.30;99.90;;;;;;5033539;28;20402;-72
2023/02/06 03:58:46;;;;;;;39.23;28.13;;;4.10;99.90;;;;;;5022929;28;20804;-72
2023/02/06 04:01:12;;;;;;;43.70;30.70;;;3.80;99.90;;;;;;5013851;28;20406;-72
2023/02/06 04:03:38;;;;;;;43.53;28.80;;;3.70;99.90;;;;;;5026825;28;20601;-72
2023/02/06 04:06:04;;;;;;;37.13;28.30;;;3.90;99.90;;;;;;5033668;28;20434;-71
2023/02/06 04:08:29;;;;;;;43.50;29.67;;;4.00;99.90;;;;;;5033163;28;20276;-72
2023/02/06 04:10:55;;;;;;;34.97;26.90;;;4.10;99.90;;;;;;5013455;28;20650;-72
2023/02/06 04:13:20;;;;;;;37.40;26.23;;;3.80;99.90;;;;;;5017948;28;20171;-71
2023/02/06 04:15:46;;;;;;;39.87;30.20;;;3.70;99.90;;;;;;5033518;28;20224;-72
2023/02/06 04:18:12;;;;;;;39.40;29.53;;;3.80;99.90;;;;;;5033662;28;20545;-72
2023/02/06 04:20:39;;;;;;;40.83;29.80;;;3.90;99.90;;;;;;5033120;28;20180;-71
2023/02/06 04:23:06;;;;;;;45.00;29.00;;;3.80;99.90;;;;;;5033350;28;20548;-72
2023/02/06 04:25:32;;;;;;;36.43;27.63;;;3.90;99.90;;;;;;5033574;28;20421;-71
2023/02/06 04:27:58;;;;;;;42.33;30.73;;;3.90;99.90;;;;;;5031796;28;20458;-71
2023/02/06 04:30:24;;;;;;;39.07;28.57;;;3.90;99.90;;;;;;5032297;28;20175;-72
2023/02/06 04:32:50;;;;;;;42.37;28.63;;;3.80;99.90;;;;;;5031873;28;20209;-71
2023/02/06 04:35:15;;;;;;;39.10;27.77;;;3.60;99.90;;;;;;5033013;28;20394;-72
2023/02/06 04:37:41;;;;;;;36.87;28.70;;;3.60;99.90;;;;;;5031914;28;20421;-72
2023/02/06 04:40:07;;;;;;;38.57;28.97;;;3.70;99.90;;;;;;5033016;28;20176;-71
2023/02/06 04:42:33;;;;;;;42.93;31.00;;;3.70;99.90;;;;;;5032881;28;20540;-72
2023/02/06 04:44:58;;;;;;;44.90;31.90;;;3.70;99.90;;;;;;5033293;28;20402;-72
2023/02/06 04:47:24;;;;;;;37.10;29.07;;;3.80;99.90;;;;;;5031731;28;20195;-71
2023/02/06 04:49:49;;;;;;;37.50;28.77;;;3.80;99.90;;;;;;5032587;28;20184;-72
2023/02/06 04:52:15;;;;;;;44.93;30.90;;;3.70;99.90;;;;;;5032947;28;20583;-72
2023/02/06 04:54:40;;;;;;;41.00;30.80;;;3.70;99.90;;;;;;5033196;28;20644;-71
2023/02/06 04:57:06;;;;;;;42.43;32.80;;;3.90;99.90;;;;;;5033010;28;20631;-72
2023/02/06 04:59:31;;;;;;;39.90;30.30;;;3.90;99.90;;;;;;5055580;22;20655;-71
2023/02/06 05:01:57;;;;;;;37.67;27.60;;;3.80;99.90;;;;;;5032865;28;20178;-71
2023/02/06 05:04:23;;;;;;;36.27;27.30;;;3.80;99.90;;;;;;5031574;28;20179;-70
2023/02/06 05:06:48;;;;;;;37.70;28.40;;;4.00;99.90;;;;;;5033063;28;20238;-72
2023/02/06 05:09:14;;;;;;;39.77;30.10;;;4.10;99.90;;;;;;5033067;28;20197;-72
2023/02/06 05:11:39;;;;;;;46.93;32.90;;;4.20;99.90;;;;;;5032897;28;20201;-72
2023/02/06 05:14:05;;;;;;;35.83;28.07;;;4.10;99.90;;;;;;5032906;28;20171;-73
2023/02/06 05:16:30;;;;;;;35.70;27.87;;;4.00;99.90;;;;;;5033101;28;20190;-71
2023/02/06 05:18:56;;;;;;;44.00;30.97;;;4.00;99.90;;;;;;5032522;28;20206;-73
2023/02/06 05:21:23;;;;;;;41.37;31.33;;;3.90;99.90;;;;;;5032800;28;20216;-72
2023/02/06 05:23:49;;;;;;;38.97;29.87;;;4.20;99.90;;;;;;5032846;28;20417;-73
2023/02/06 05:26:14;;;;;;;38.10;27.73;;;4.10;99.90;;;;;;5033865;28;20406;-73
2023/02/06 05:28:40;;;;;;;39.13;28.80;;;4.00;99.90;;;;;;5036567;28;20199;-72
2023/02/06 05:31:05;;;;;;;39.10;28.40;;;4.10;99.90;;;;;;5036725;28;20590;-73
2023/02/06 05:33:31;;;;;;;38.90;30.40;;;3.90;99.90;;;;;;5036840;28;20250;-74
2023/02/06 05:36:02;;;;;;;37.03;27.73;;;4.00;99.90;;;;;;5035026;28;20167;-72
2023/02/06 05:38:27;;;;;;;40.70;30.00;;;4.20;99.90;;;;;;5036641;28;20215;-73
2023/02/06 05:40:53;;;;;;;37.00;30.87;;;3.80;99.90;;;;;;5036514;28;20895;-72
2023/02/06 05:43:18;;;;;;;36.57;29.17;;;3.90;99.90;;;;;;5036300;28;20630;-72
2023/02/06 05:45:44;;;;;;;40.17;31.70;;;3.90;99.90;;;;;;5036594;28;20171;-72
2023/02/06 05:48:09;;;;;;;33.43;27.83;;;3.80;99.90;;;;;;5036189;28;20207;-73
2023/02/06 05:50:35;;;;;;;38.87;29.23;;;3.90;99.90;;;;;;5035990;28;20626;-72
2023/02/06 05:53:00;;;;;;;35.20;27.43;;;3.90;99.90;;;;;;5028263;28;20168;-72
2023/02/06 05:55:26;;;;;;;35.23;27.37;;;3.90;99.90;;;;;;5016356;28;20312;-73
2023/02/06 05:57:51;;;;;;;35.20;28.37;;;4.00;99.90;;;;;;5016562;28;20211;-72
2023/02/06 06:00:17;;;;;;;31.63;25.90;;;3.80;99.90;;;;;;5016657;28;20183;-73
2023/02/06 06:02:43;;;;;;;37.97;27.03;;;3.70;99.90;;;;;;5016238;28;20251;-73
2023/02/06 06:05:08;;;;;;;36.83;28.07;;;3.70;99.90;;;;;;5030211;28;20179;-71
2023/02/06 06:07:34;;;;;;;35.67;27.40;;;3.70;99.90;;;;;;5033360;28;20210;-72
2023/02/06 06:10:00;;;;;;;34.50;28.07;;;3.90;99.90;;;;;;5034258;28;20206;-72
2023/02/06 06:12:25;;;;;;;34.93;28.73;;;3.70;99.90;;;;;;5035839;28;20178;-72
2023/02/06 06:14:51;;;;;;;34.37;26.80;;;3.50;99.90;;;;;;5023874;28;20203;-72
2023/02/06 06:17:16;;;;;;;34.23;27.27;;;3.40;99.90;;;;;;5016693;28;20183;-72
2023/02/06 06:19:42;;;;;;;34.10;28.57;;;3.60;99.90;;;;;;5015913;28;20606;-72
2023/02/06 06:22:07;;;;;;;37.07;29.53;;;3.60;99.90;;;;;;5015764;28;20543;-71
2023/02/06 06:24:33;;;;;;;37.40;30.10;;;3.70;99.90;;;;;;5015589;28;20199;-72
2023/02/06 06:26:59;;;;;;;37.10;28.03;;;3.70;99.90;;;;;;5015706;28;20172;-72
2023/02/06 06:29:25;;;;;;;34.53;27.63;;;4.00;99.90;;;;;;5016031;28;20666;-73
2023/02/06 06:31:51;;;;;;;34.47;27.93;;;3.90;99.90;;;;;;5016074;28;20183;-73
2023/02/06 06:34:16;;;;;;;35.87;29.10;;;3.80;99.90;;;;;;5014418;28;20410;-73
2023/02/06 06:36:42;;;;;;;33.50;27.27;;;3.80;99.90;;;;;;5014334;28;20542;-73
2023/02/06 06:39:08;;;;;;;31.77;27.57;;;3.50;99.90;;;;;;5029346;28;20253;-72
2023/02/06 06:41:33;;;;;;;36.17;26.67;;;3.30;99.90;;;;;;5035302;28;20182;-72
2023/02/06 06:43:59;;;;;;;29.90;24.07;;;3.50;99.90;;;;;;5035329;28;20182;-72
2023/02/06 06:46:25;;;;;;;35.17;28.07;;;3.50;99.90;;;;;;5035162;28;20225;-73
2023/02/06 06:48:51;;;;;;;31.90;25.27;;;3.60;99.90;;;;;;5035321;28;20968;-72
2023/02/06 06:51:16;;;;;;;32.17;26.87;;;3.80;99.90;;;;;;5035297;28;20912;-73
2023/02/06 06:53:42;;;;;;;29.97;24.67;;;4.00;99.90;;;;;;5033496;28;20179;-73
2023/02/06 06:56:12;;;;;;;31.20;25.90;;;4.00;99.90;;;;;;5035034;28;20175;-73
2023/02/06 06:58:38;;;;;;;33.80;24.30;;;4.00;99.90;;;;;;5033322;28;20215;-73
2023/02/06 07:01:04;;;;;;;31.37;26.50;;;4.00;99.90;;;;;;5033564;28;20811;-73
2023/02/06 07:03:29;;;;;;;27.20;22.83;;;4.00;99.90;;;;;;5034957;28;20418;-71
2023/02/06 07:05:55;;;;;;;29.87;24.37;;;4.00;99.90;;;;;;5034704;28;20410;-72
2023/02/06 07:08:21;;;;;;;32.20;26.30;;;4.00;99.90;;;;;;5033301;28;20206;-72
2023/02/06 07:10:47;;;;;;;32.37;24.33;;;4.00;99.90;;;;;;5034752;28;20164;-72
2023/02/06 07:13:14;;;;;;;31.10;23.20;;;4.00;99.90;;;;;;5035120;28;20172;-73
2023/02/06 07:15:40;;;;;;;30.53;22.60;;;3.80;99.90;;;;;;5034575;28;20796;-71
2023/02/06 07:18:06;;;;;;;33.07;26.50;;;3.80;99.90;;;;;;5034628;28;20398;-73
2023/02/06 07:20:31;;;;;;;32.30;25.80;;;3.70;99.90;;;;;;5034699;28;20410;-72
2023/02/06 07:22:57;;;;;;;26.43;22.37;;;3.60;99.90;;;;;;5032930;28;20172;-72
2023/02/06 07:25:22;;;;;;;28.80;23.63;;;3.60;99.90;;;;;;5034654;28;20222;-72
2023/02/06 07:27:48;;;;;;;28.17;23.20;;;3.40;99.90;;;;;;5034621;28;20562;-72
2023/02/06 07:30:14;;;;;;;29.60;23.83;;;3.50;99.90;;;;;;5034255;28;20689;-71
2023/02/06 07:32:39;;;;;;;26.73;22.17;;;3.70;99.90;;;;;;5034354;28;20259;-72
2023/02/06 07:35:06;;;;;;;31.80;25.03;;;3.80;99.90;;;;;;5034100;28;20286;-72
2023/02/06 07:37:32;;;;;;;29.17;25.13;;;3.70;99.90;;;;;;5034114;28;20177;-72
2023/02/06 07:39:57;;;;;;;30.03;21.73;;;3.60;99.90;;;;;;5034434;28;20925;-72
2023/02/06 07:42:23;;;;;;;27.27;23.73;;;3.30;99.90;;;;;;5032794;28;20180;-72
2023/02/06 07:44:49;;;;;;;26.70;22.03;;;3.30;99.90;;;;;;5034521;28;20167;-73
2023/02/06 07:47:15;;;;;;;23.80;20.80;;;3.30;99.90;;;;;;5034129;28;20195;-72
2023/02/06 07:49:40;;;;;;;25.63;22.10;;;3.30;99.90;;;;;;5029030;28;20192;-73
2023/02/06 07:52:06;;;;;;;24.97;21.50;;;3.40;99.90;;;;;;5014111;28;20617;-72
2023/02/06 07:54:31;;;;;;;23.10;19.50;;;3.50;99.90;;;;;;5013976;28;20172;-73
2023/02/06 07:56:57;;;;;;;28.50;22.70;;;3.70;99.90;;;;;;5014293;28;20168;-73
2023/02/06 07:59:23;;;;;;;27.90;20.60;;;3.60;99.90;;;;;;5014007;28;20212;-73
2023/02/06 08:01:48;;;;;;;26.40;21.10;;;3.50;99.90;;;;;;5014162;28;20206;-72
2023/02/06 08:04:14;;;;;;;24.77;20.30;;;3.60;99.90;;;;;;5014098;28;20240;-73
2023/02/06 08:06:41;;;;;;;24.70;20.33;;;3.50;99.90;;;;;;5034031;28;20221;-72
2023/02/06 08:09:11;;;;;;;24.57;20.40;;;3.60;99.90;;;;;;5033359;28;20256;-72
2023/02/06 08:11:37;;;;;;;21.40;19.20;;;3.90;99.90;;;;;;5033551;28;20896;-72
2023/02/06 08:14:03;;;;;;;22.30;19.90;;;4.10;99.90;;;;;;5033481;28;20412;-72
2023/02/06 08:16:29;;;;;;;24.47;18.60;;;4.10;99.90;;;;;;5032932;28;20167;-73
2023/02/06 08:18:54;;;;;;;20.53;18.30;;;3.80;99.90;;;;;;5031291;28;20460;-74
2023/02/06 08:21:22;;;;;;;22.03;18.20;;;3.80;99.90;;;;;;5032691;28;20569;-73
2023/02/06 08:23:54;;;;;;;23.70;18.20;;;3.70;99.90;;;;;;5022228;28;20172;-73
2023/02/06 08:26:20;;;;;;;22.57;18.67;;;3.80;99.90;;;;;;5013785;28;20394;-73
2023/02/06 08:28:48;;;;;;;22.53;17.17;;;3.70;99.90;;;;;;5012253;28;20542;-74
2023/02/06 08:31:16;;;;;;;22.27;16.70;;;3.70;99.90;;;;;;5013710;28;20411;-73
2023/02/06 08:33:43;;;;;;;20.20;17.30;;;3.80;99.90;;;;;;5013471;28;20403;-73
2023/02/06 08:36:10;;;;;;;21.20;16.80;;;4.10;99.90;;;;;;5030897;28;20453;-73
2023/02/06 08:38:36;;;;;;;22.23;16.73;;;4.20;99.90;;;;;;5033623;28;20925;-74
2023/02/06 08:41:01;;;;;;;19.83;16.87;;;4.30;99.90;;;;;;5033280;28;20418;-74
2023/02/06 08:43:27;;;;;;;17.40;15.60;;;4.20;99.90;;;;;;5032734;28;20424;-73
2023/02/06 08:45:58;;;;;;;16.40;14.70;;;3.80;99.90;;;;;;5034578;28;20178;-73
2023/02/06 08:48:25;;;;;;;17.07;15.20;;;3.70;99.90;;;;;;5035320;28;20218;-73
2023/02/06 08:50:59;;;;;;;19.07;15.17;;;3.70;99.90;;;;;;5033770;28;20414;-73
2023/02/06 08:53:25;;;;;;;18.70;15.90;;;3.80;99.90;;;;;;5034942;28;20389;-73
2023/02/06 08:55:57;;;;;;;18.17;14.97;;;3.80;99.90;;;;;;5034496;28;20398;-74
2023/02/06 08:58:23;;;;;;;16.93;15.10;;;3.90;99.90;;;;;;5034664;28;20277;-73
2023/02/06 09:00:48;;;;;;;21.57;14.83;;;4.10;99.90;;;;;;5034423;28;20470;-74
2023/02/06 09:03:14;;;;;;;18.80;13.93;;;4.40;99.90;;;;;;5034137;28;20688;-74
2023/02/06 09:05:39;;;;;;;15.33;13.73;;;4.10;99.90;;;;;;5034828;28;20179;-74
2023/02/06 09:08:05;;;;;;;13.37;11.97;;;4.10;99.90;;;;;;5034321;28;20649;-74
2023/02/06 09:10:30;;;;;;;14.90;12.03;;;4.30;99.90;;;;;;5034775;28;20172;-73
2023/02/06 09:12:56;;;;;;;17.30;13.20;;;4.30;99.90;;;;;;5035280;28;20171;-74
2023/02/06 09:15:22;;;;;;;24.23;12.30;;;4.30;99.90;;;;;;5035530;28;20262;-74
2023/02/06 09:17:47;;;;;;;24.33;13.40;;;4.10;99.90;;;;;;5034784;28;20198;-73
2023/02/06 09:20:13;;;;;;;18.00;13.63;;;4.10;99.90;;;;;;5033268;28;20274;-73
2023/02/06 09:22:38;;;;;;;15.50;12.77;;;4.10;99.90;;;;;;5033210;28;20323;-73
2023/02/06 09:25:04;;;;;;;17.80;13.47;;;4.00;99.90;;;;;;5032436;28;20175;-73
2023/02/06 09:27:30;;;;;;;20.67;13.13;;;3.80;99.90;;;;;;5032953;28;20225;-73
2023/02/06 09:29:55;;;;;;;16.50;12.60;;;3.70;99.90;;;;;;5032577;28;20426;-73
2023/02/06 09:32:21;;;;;;;16.33;12.70;;;3.60;99.90;;;;;;5032624;28;20175;-73
2023/02/06 09:34:46;;;;;;;16.33;13.10;;;3.70;99.90;;;;;;5032814;28;20168;-73
2023/02/06 09:37:12;;;;;;;14.90;12.73;;;3.80;99.90;;;;;;5032751;28;20171;-73
2023/02/06 09:39:38;;;;;;;15.83;12.77;;;4.10;99.90;;;;;;5032372;28;20551;-73
2023/02/06 09:42:10;;;;;;;16.77;11.77;;;4.10;99.90;;;;;;5032524;28;20653;-74
2023/02/06 09:44:39;;;;;;;15.33;11.60;;;4.00;99.90;;;;;;5032782;28;20163;-73
2023/02/06 09:47:22;;;;;;;17.57;11.90;;;4.10;99.90;;;;;;5032527;28;20410;-74
2023/02/06 09:50:07;;;;;;;13.90;12.47;;;3.90;99.90;;;;;;5032427;28;20528;-74
2023/02/06 09:52:59;;;;;;;13.80;10.77;;;4.10;99.90;;;;;;5033151;28;20398;-74
2023/02/06 09:55:38;;;;;;;14.70;11.10;;;4.10;99.90;;;;;;5032432;28;20748;-73
2023/02/06 09:58:14;;;;;;;12.57;10.90;;;4.20;99.90;;;;;;5028940;28;20477;-73
2023/02/06 10:00:52;;;;;;;12.00;10.33;;;4.30;99.90;;;;;;5012766;28;20405;-73
2023/02/06 10:03:51;;;;;;;11.07;9.97;;;4.60;99.90;;;;;;5012084;28;20419;-72
2023/02/06 10:06:32;;;;;;;13.27;9.53;;;4.80;99.90;;;;;;5012981;28;20397;-72
2023/02/06 10:09:38;;;;;;;11.90;8.80;;;4.60;99.90;;;;;;5023392;28;20457;-72
2023/02/06 10:12:22;;;;;;;9.70;8.60;;;4.60;99.90;;;;;;4971752;28;20511;-72
2023/02/06 10:14:54;;;;;;;10.80;9.67;;;4.70;99.90;;;;;;5030069;28;20413;-73
2023/02/06 10:17:27;;;;;;;12.10;8.57;;;4.80;99.90;;;;;;5035837;28;20390;-74
2023/02/06 10:20:10;;;;;;;15.17;9.10;;;5.00;99.90;;;;;;5031012;28;20480;-73
2023/02/06 10:22:48;;;;;;;9.60;8.40;;;5.10;99.90;;;;;;5016357;28;20394;-73
2023/02/06 10:25:48;;;;;;;13.07;9.10;;;4.80;99.90;;;;;;5015705;28;20477;-74
2023/02/06 10:28:28;;;;;;;11.30;8.87;;;5.00;99.90;;;;;;5004680;28;20561;-73
2023/02/06 10:31:11;;;;;;;11.47;9.63;;;4.60;99.90;;;;;;5016085;28;20408;-73
2023/02/06 10:34:01;;;;;;;10.00;8.83;;;4.60;99.90;;;;;;5015956;28;20391;-73
2023/02/06 10:36:49;;;;;;;8.00;6.40;;;4.60;99.90;;;;;;5015958;28;20395;-73
2023/02/06 10:39:52;;;;;;;6.87;6.13;;;4.50;99.90;;;;;;5030635;28;20492;-73
2023/02/06 10:42:45;;;;;;;8.50;6.30;;;4.20;99.90;;;;;;5015848;28;20423;-73
2023/02/06 10:45:29;;;;;;;11.80;8.00;;;4.40;99.90;;;;;;5015522;28;20901;-73
2023/02/06 10:48:00;;;;;;;8.03;7.07;;;4.90;99.90;;;;;;5015802;28;20438;-73
2023/02/06 10:50:52;;;;;;;8.10;6.77;;;4.90;99.90;;;;;;5015585;28;20817;-73
2023/02/06 10:53:53;;;;;;;5.43;4.77;;;4.90;99.90;;;;;;5013506;28;20922;-73
2023/02/06 10:56:26;;;;;;;8.30;5.60;;;4.40;99.90;;;;;;4996428;28;20469;-73
2023/02/06 10:58:53;;;;;;;9.83;6.10;;;4.40;99.90;;;;;;5038497;23;20509;-72
2023/02/06 11:01:21;;;;;;;7.23;6.10;;;4.40;99.90;;;;;;5014790;28;20937;-72
2023/02/06 11:03:54;;;;;;;6.70;5.43;;;4.50;99.90;;;;;;5015946;28;20469;-72
2023/02/06 11:06:24;;;;;;;5.13;4.63;;;4.60;99.90;;;;;;5014354;28;20828;-73
2023/02/06 11:08:50;;;;;;;5.50;4.90;;;4.60;99.90;;;;;;5028143;28;20456;-73
2023/02/06 11:11:20;;;;;;;6.10;5.30;;;4.50;99.90;;;;;;4995866;28;20466;-74
2023/02/06 11:13:50;;;;;;;5.87;4.90;;;4.70;99.90;;;;;;4996049;28;20412;-72
2023/02/06 11:16:23;;;;;;;4.57;4.13;;;4.50;99.90;;;;;;4995971;28;20462;-73
2023/02/06 11:18:49;;;;;;;6.10;4.30;;;4.30;99.90;;;;;;4996080;28;20961;-73
2023/02/06 11:21:41;;;;;;;6.90;5.00;;;4.60;99.90;;;;;;5027419;28;20416;-72
2023/02/06 11:24:09;;;;;;;5.47;4.77;;;4.70;99.90;;;;;;4995261;28;20862;-72
2023/02/06 11:29:19;;;;;;;7.63;4.77;;;4.80;99.90;;;;;;5010315;28;20470;-73
2023/02/06 11:31:57;;;;;;;6.40;4.30;;;5.00;99.90;;;;;;5013413;28;20832;-73
2023/02/06 11:34:27;;;;;;;11.23;5.00;;;5.00;99.90;;;;;;5014049;28;20786;-73
2023/02/06 11:36:58;;;;;;;5.43;4.47;;;5.10;99.90;;;;;;5029619;28;20403;-73
2023/02/06 11:39:29;;;;;;;6.00;4.93;;;5.10;99.90;;;;;;5014689;28;20387;-74
2023/02/06 11:41:57;;;;;;;11.47;5.37;;;5.10;99.90;;;;;;5015283;28;20415;-73
2023/02/06 11:44:28;;;;;;;7.40;5.33;;;5.10;99.90;;;;;;5014028;28;20395;-74
2023/02/06 11:46:53;;;;;;;6.20;5.13;;;5.20;99.90;;;;;;5013137;28;20462;-73
2023/02/06 11:49:25;;;;;;;5.83;5.30;;;5.20;99.90;;;;;;5014609;28;20454;-73
2023/02/06 11:51:59;;;;;;;7.80;5.63;;;5.20;99.90;;;;;;5012897;28;20713;-73
2023/02/06 11:54:34;;;;;;;6.93;4.70;;;5.20;99.90;;;;;;5012969;28;20461;-73
2023/02/06 11:57:20;;;;;;;7.57;5.93;;;5.20;99.90;;;;;;5014022;28;20425;-72
2023/02/06 11:59:55;;;;;;;7.17;5.80;;;5.60;99.90;;;;;;5014148;28;20474;-73
2023/02/06 12:02:33;;;;;;;5.67;5.17;;;5.30;99.90;;;;;;5013217;28;20751;-73
2023/02/06 12:05:10;;;;;;;8.23;5.83;;;5.40;99.90;;;;;;5014739;28;20415;-73
2023/02/06 12:07:42;;;;;;;11.30;7.97;;;5.40;99.90;;;;;;5015204;28;20450;-74
2023/02/06 12:10:14;;;;;;;8.03;5.63;;;5.40;99.90;;;;;;5013049;28;20422;-73
2023/02/06 12:12:45;;;;;;;7.20;5.60;;;5.20;99.90;;;;;;5014778;28;20461;-73
2023/02/06 12:15:18;;;;;;;6.33;5.73;;;5.30;99.90;;;;;;5013510;28;20415;-73
2023/02/06 12:17:54;;;;;;;7.23;6.60;;;5.00;99.90;;;;;;5013827;28;20461;-73
2023/02/06 12:20:24;;;;;;;8.40;6.20;;;5.20;99.90;;;;;;5012549;28;20477;-73
2023/02/06 12:22:57;;;;;;;7.60;5.40;;;5.50;99.90;;;;;;5013848;28;20398;-73
2023/02/06 12:25:35;;;;;;;6.23;5.60;;;5.40;99.90;;;;;;5013463;28;20395;-73
2023/02/06 12:28:27;;;;;;;7.00;6.30;;;5.10;99.90;;;;;;5013602;28;20476;-73
2023/02/06 12:31:26;;;;;;;7.93;6.90;;;5.00;99.90;;;;;;5007190;28;20415;-73
2023/02/06 12:33:57;;;;;;;7.00;5.47;;;4.80;99.90;;;;;;5002718;28;20423;-73
2023/02/06 12:36:29;;;;;;;6.60;5.90;;;4.80;99.90;;;;;;5012925;28;20393;-72
2023/02/06 12:39:01;;;;;;;8.87;6.67;;;4.80;99.90;;;;;;5013592;28;20423;-72
2023/02/06 12:41:29;;;;;;;8.07;7.30;;;4.80;99.90;;;;;;5013125;28;20407;-73
2023/02/06 12:44:02;;;;;;;11.10;8.40;;;4.40;99.90;;;;;;5014033;28;20403;-72
2023/02/06 12:46:29;;;;;;;11.40;7.60;;;4.30;99.90;;;;;;5013634;28;20388;-73
2023/02/06 12:49:17;;;;;;;7.40;6.47;;;4.40;99.90;;;;;;5014141;28;20449;-73
2023/02/06 12:52:00;;;;;;;8.37;7.23;;;4.50;99.90;;;;;;5013847;28;20380;-72
2023/02/06 12:54:36;;;;;;;9.93;6.60;;;4.60;99.90;;;;;;5013616;28;20383;-73
2023/02/06 12:57:10;;;;;;;9.80;7.57;;;4.80;99.90;;;;;;5012978;28;20423;-74
2023/02/06 12:59:51;;;;;;;13.80;8.50;;;4.60;99.90;;;;;;5012712;28;20414;-75